Time;durP1;ratioP1;P1;durP2;ratioP2;P2;SDS_P1;SDS_P2;PMS_P1;PMS_P2;Temp;Humidity;BMP_temperature;BMP_pressure;BME280_temperature;BME280_humidity;BME280_pressure;Samples;Min_cycle;Max_cycle;Signal;HPM_P1;HPM_P2
2021/03/23 00:00:47;;;;;;;43.20;23.77;;;5.20;60.00;;;;;;4343145;32;20079;-37
2021/03/23 00:03:16;;;;;;;37.27;19.73;;;5.20;60.00;;;;;;4343150;32;20589;-37
2021/03/23 00:05:43;;;;;;;34.17;16.80;;;5.20;59.70;;;;;;4329251;33;20091;-37
2021/03/23 00:08:28;;;;;;;33.60;15.90;;;5.20;59.70;;;;;;4355340;32;20076;-39
2021/03/23 00:10:57;;;;;;;35.00;18.50;;;5.20;59.60;;;;;;4355606;32;20055;-38
2021/03/23 00:13:23;;;;;;;26.83;14.03;;;5.30;59.40;;;;;;4355195;32;20097;-37
2021/03/23 00:15:50;;;;;;;27.20;15.77;;;5.20;59.30;;;;;;4355369;32;20157;-37
2021/03/23 00:18:17;;;;;;;19.00;9.67;;;5.20;59.20;;;;;;4355265;32;20079;-37
2021/03/23 00:20:43;;;;;;;23.93;13.47;;;5.20;59.20;;;;;;4330515;32;20173;-38
2021/03/23 00:23:10;;;;;;;27.10;14.43;;;5.20;59.10;;;;;;4355558;32;20236;-36
2021/03/23 00:25:36;;;;;;;22.23;9.80;;;5.20;59.00;;;;;;4343327;32;20082;-36
2021/03/23 00:28:05;;;;;;;26.63;13.73;;;5.20;58.80;;;;;;4325087;33;20075;-38
2021/03/23 00:30:31;;;;;;;25.60;15.03;;;5.20;58.80;;;;;;4326889;33;20568;-36
2021/03/23 00:32:58;;;;;;;25.57;12.63;;;5.20;58.70;;;;;;4328555;33;20104;-37
2021/03/23 00:35:24;;;;;;;27.83;14.93;;;5.20;58.60;;;;;;4316316;33;20067;-36
2021/03/23 00:37:54;;;;;;;28.20;15.43;;;5.20;58.60;;;;;;4328674;33;20071;-38
2021/03/23 00:40:25;;;;;;;23.47;14.67;;;5.20;58.50;;;;;;4328316;33;20146;-37
2021/03/23 00:42:52;;;;;;;25.03;13.73;;;5.20;58.50;;;;;;4316304;33;20082;-37
2021/03/23 00:45:18;;;;;;;28.57;14.23;;;5.20;58.40;;;;;;4328043;33;20616;-37
2021/03/23 00:47:45;;;;;;;19.77;9.20;;;5.30;58.40;;;;;;4328086;33;20194;-37
2021/03/23 00:50:12;;;;;;;18.20;11.17;;;5.20;58.30;;;;;;4304204;33;20196;-36
2021/03/23 00:52:38;;;;;;;20.03;12.47;;;5.20;58.30;;;;;;4328858;33;20074;-36
2021/03/23 00:55:06;;;;;;;24.80;13.57;;;5.20;58.20;;;;;;4316273;33;20134;-37
2021/03/23 00:57:33;;;;;;;19.97;9.43;;;5.20;58.00;;;;;;4316172;33;20083;-37
2021/03/23 00:59:59;;;;;;;15.70;9.73;;;5.20;58.00;;;;;;4327861;33;20082;-38
2021/03/23 01:02:27;;;;;;;18.40;11.07;;;5.20;58.00;;;;;;4316100;33;20078;-42
2021/03/23 01:04:54;;;;;;;21.20;12.63;;;5.20;57.90;;;;;;4331862;33;20074;-36
2021/03/23 01:07:20;;;;;;;19.33;10.53;;;5.10;57.80;;;;;;4343241;33;20082;-37
2021/03/23 01:09:46;;;;;;;19.40;10.67;;;5.20;57.90;;;;;;4345531;33;20055;-37
2021/03/23 01:12:13;;;;;;;16.47;10.00;;;5.10;57.70;;;;;;4345307;33;20067;-37
2021/03/23 01:14:40;;;;;;;18.83;12.07;;;5.20;57.70;;;;;;4345216;32;20059;-37
2021/03/23 01:17:07;;;;;;;18.63;11.13;;;5.20;57.50;;;;;;4345085;32;20074;-38
2021/03/23 01:19:34;;;;;;;18.87;11.20;;;5.20;57.40;;;;;;4343469;33;20078;-37
2021/03/23 01:22:00;;;;;;;17.73;11.50;;;5.20;57.20;;;;;;4345008;32;20077;-37
2021/03/23 01:24:27;;;;;;;17.10;11.30;;;5.20;57.20;;;;;;4344750;32;20065;-38
2021/03/23 01:26:53;;;;;;;17.93;11.73;;;5.20;57.00;;;;;;4313116;33;20523;-36
2021/03/23 01:29:20;;;;;;;19.30;10.40;;;5.20;56.80;;;;;;4313272;33;20071;-36
2021/03/23 01:31:46;;;;;;;17.60;10.63;;;5.20;56.90;;;;;;4288526;33;20063;-36
2021/03/23 01:34:13;;;;;;;14.07;9.10;;;5.20;56.80;;;;;;4300921;33;20075;-38
2021/03/23 01:36:39;;;;;;;15.17;6.53;;;5.20;56.60;;;;;;4271542;33;20224;-36
2021/03/23 01:39:06;;;;;;;11.80;6.90;;;5.20;56.60;;;;;;4283613;33;20094;-36
2021/03/23 01:41:32;;;;;;;11.53;7.50;;;5.20;56.60;;;;;;4271503;33;20120;-37
2021/03/23 01:43:59;;;;;;;12.97;8.57;;;5.30;56.60;;;;;;4284018;33;20644;-36
2021/03/23 01:46:38;;;;;;;15.40;8.83;;;5.40;56.30;;;;;;4283892;33;20073;-38
2021/03/23 01:49:17;;;;;;;15.73;9.23;;;5.40;56.10;;;;;;4296332;33;20155;-37
2021/03/23 01:51:46;;;;;;;14.10;9.60;;;5.40;55.90;;;;;;4276958;33;20107;-37
2021/03/23 01:54:22;;;;;;;13.57;8.07;;;5.50;55.50;;;;;;4286748;33;20154;-38
2021/03/23 01:56:50;;;;;;;14.73;9.27;;;5.50;55.50;;;;;;4257730;33;20100;-38
2021/03/23 01:59:17;;;;;;;10.70;6.60;;;5.50;55.40;;;;;;4257234;33;20072;-37
2021/03/23 02:01:44;;;;;;;14.00;8.57;;;5.50;55.20;;;;;;4269348;33;20065;-37
2021/03/23 02:04:11;;;;;;;15.23;9.40;;;5.50;55.20;;;;;;4266269;33;20075;-37
2021/03/23 02:06:47;;;;;;;13.33;7.93;;;5.50;55.10;;;;;;4272489;33;20104;-39
2021/03/23 02:09:34;;;;;;;14.70;8.67;;;5.50;55.10;;;;;;4298269;33;20067;-38
2021/03/23 02:12:09;;;;;;;15.87;9.53;;;5.50;55.10;;;;;;4298035;33;20063;-37
2021/03/23 02:14:45;;;;;;;17.50;10.47;;;5.40;55.00;;;;;;4297920;33;20076;-37
2021/03/23 02:17:34;;;;;;;13.57;8.20;;;5.40;55.10;;;;;;4263425;33;20068;-37
2021/03/23 02:20:20;;;;;;;11.27;7.70;;;5.30;55.30;;;;;;4254682;33;20526;-37
2021/03/23 02:22:50;;;;;;;14.00;8.05;;;5.30;55.40;;;;;;4254607;33;20538;-37
2021/03/23 02:25:25;;;;;;;15.43;9.93;;;5.30;55.40;;;;;;4238041;33;20168;-36
2021/03/23 02:27:52;;;;;;;14.23;8.48;;;5.30;55.40;;;;;;4226318;33;20058;-38
2021/03/23 02:30:37;;;;;;;12.40;7.37;;;5.30;55.40;;;;;;4226312;33;20511;-36
2021/03/23 02:33:04;;;;;;;14.07;8.43;;;5.20;55.30;;;;;;4226655;33;20144;-35
2021/03/23 02:35:31;;;;;;;13.83;9.40;;;5.20;55.30;;;;;;4240499;33;20080;-38
2021/03/23 02:37:59;;;;;;;12.40;7.00;;;5.20;55.50;;;;;;4258062;33;20693;-36
2021/03/23 02:40:26;;;;;;;11.40;7.73;;;5.20;55.60;;;;;;4257061;33;20076;-36
2021/03/23 02:42:52;;;;;;;12.73;8.57;;;5.20;55.60;;;;;;4256824;33;20141;-36
2021/03/23 02:45:19;;;;;;;12.33;7.47;;;5.20;55.60;;;;;;4245286;33;20171;-37
2021/03/23 02:47:45;;;;;;;15.23;9.37;;;5.20;55.60;;;;;;4273296;33;20068;-38
2021/03/23 02:50:13;;;;;;;14.80;8.30;;;5.20;55.70;;;;;;4282563;33;20080;-37
2021/03/23 02:52:39;;;;;;;16.87;8.53;;;5.20;55.80;;;;;;4282556;33;20107;-37
2021/03/23 02:55:07;;;;;;;14.03;8.07;;;5.20;55.70;;;;;;4282887;33;20072;-40
2021/03/23 02:57:33;;;;;;;12.23;7.73;;;5.20;55.70;;;;;;4343443;32;20616;-37
2021/03/23 03:00:00;;;;;;;16.20;9.70;;;5.20;55.70;;;;;;4358329;32;20085;-36
2021/03/23 03:02:26;;;;;;;17.57;9.03;;;5.20;55.80;;;;;;4325877;33;20514;-37
2021/03/23 03:04:53;;;;;;;15.23;9.43;;;5.20;55.80;;;;;;4302672;33;20142;-37
2021/03/23 03:07:19;;;;;;;11.30;6.30;;;5.20;56.30;;;;;;4327004;33;20181;-36
2021/03/23 03:09:47;;;;;;;14.43;8.17;;;5.30;55.70;;;;;;4327269;33;20070;-36
2021/03/23 03:12:14;;;;;;;17.10;8.97;;;5.30;55.60;;;;;;4326655;33;20075;-36
2021/03/23 03:14:40;;;;;;;14.77;9.63;;;5.40;55.50;;;;;;4314333;33;20087;-36
2021/03/23 03:17:07;;;;;;;15.07;9.30;;;5.40;55.40;;;;;;4310880;33;20165;-37
2021/03/23 03:19:33;;;;;;;14.20;8.67;;;5.50;55.40;;;;;;4298914;33;20055;-36
2021/03/23 03:22:00;;;;;;;13.07;9.03;;;5.60;55.30;;;;;;4311503;33;20068;-36
2021/03/23 03:24:27;;;;;;;12.33;7.07;;;5.60;55.20;;;;;;4299172;33;20071;-38
2021/03/23 03:26:53;;;;;;;13.77;9.40;;;5.70;55.00;;;;;;4311754;33;20566;-37
2021/03/23 03:29:20;;;;;;;12.77;8.63;;;5.70;54.90;;;;;;4287297;33;20087;-36
2021/03/23 03:31:46;;;;;;;15.10;6.73;;;5.80;54.80;;;;;;4311025;33;20514;-37
2021/03/23 03:34:12;;;;;;;15.33;8.27;;;5.90;54.70;;;;;;4323232;33;20288;-37
2021/03/23 03:36:39;;;;;;;14.07;7.27;;;5.90;54.50;;;;;;4328500;33;20105;-37
2021/03/23 03:39:06;;;;;;;15.03;8.77;;;6.00;54.40;;;;;;4328707;33;20074;-37
2021/03/23 03:41:33;;;;;;;15.97;9.73;;;6.10;54.20;;;;;;4340462;33;20074;-37
2021/03/23 03:43:59;;;;;;;16.70;9.53;;;6.10;54.00;;;;;;4304706;33;20153;-37
2021/03/23 03:46:26;;;;;;;14.10;9.13;;;6.10;53.80;;;;;;4340755;33;20077;-38
2021/03/23 03:48:52;;;;;;;12.83;8.17;;;6.20;53.90;;;;;;4343702;32;20078;-38
2021/03/23 03:51:19;;;;;;;13.73;7.30;;;6.20;53.60;;;;;;4343173;33;20055;-37
2021/03/23 03:53:45;;;;;;;16.83;7.63;;;6.30;53.50;;;;;;4341369;33;20086;-37
2021/03/23 03:56:12;;;;;;;14.60;8.07;;;6.30;53.60;;;;;;4325281;33;20577;-37
2021/03/23 03:58:38;;;;;;;16.53;7.97;;;6.40;53.40;;;;;;4313528;33;20587;-37
2021/03/23 04:01:05;;;;;;;16.93;7.17;;;6.50;53.20;;;;;;4313624;33;20111;-37
2021/03/23 04:03:32;;;;;;;13.57;6.97;;;6.50;52.70;;;;;;4325867;33;20055;-37
2021/03/23 04:05:59;;;;;;;10.33;7.53;;;6.50;52.70;;;;;;4302858;33;20067;-38
2021/03/23 04:08:31;;;;;;;12.73;7.07;;;6.60;52.70;;;;;;4328393;33;20161;-37
2021/03/23 04:10:59;;;;;;;14.50;7.90;;;6.60;52.70;;;;;;4317459;33;20151;-37
2021/03/23 04:13:26;;;;;;;12.87;6.30;;;6.60;52.60;;;;;;4313886;33;20083;-37
2021/03/23 04:15:52;;;;;;;20.77;7.87;;;6.70;52.50;;;;;;4289912;33;20186;-38
2021/03/23 04:18:22;;;;;;;10.67;6.97;;;6.80;52.40;;;;;;4290065;33;20058;-37
2021/03/23 04:20:49;;;;;;;10.73;5.60;;;6.70;52.30;;;;;;4314216;33;20078;-38
2021/03/23 04:23:37;;;;;;;13.23;7.43;;;6.80;52.10;;;;;;4301624;33;20245;-37
2021/03/23 04:26:05;;;;;;;14.23;6.73;;;6.80;52.20;;;;;;4301351;33;20548;-38
2021/03/23 04:28:32;;;;;;;9.17;5.03;;;6.90;52.10;;;;;;4272848;33;20607;-38
2021/03/23 04:30:58;;;;;;;11.17;5.87;;;7.00;51.90;;;;;;4272845;33;20557;-38
2021/03/23 04:33:26;;;;;;;16.13;6.50;;;7.00;51.60;;;;;;4272491;33;20570;-39
2021/03/23 04:36:07;;;;;;;12.00;7.17;;;7.00;51.70;;;;;;4289828;33;20067;-38
2021/03/23 04:38:36;;;;;;;10.97;6.53;;;7.10;51.60;;;;;;4301547;33;20113;-37
2021/03/23 04:41:11;;;;;;;15.27;8.47;;;7.20;51.20;;;;;;4301571;33;20071;-38
2021/03/23 04:43:40;;;;;;;11.02;5.80;;;7.20;50.80;;;;;;4301898;33;20586;-37
2021/03/23 04:46:07;;;;;;;13.50;7.50;;;7.30;50.80;;;;;;4301653;33;20141;-37
2021/03/23 04:48:34;;;;;;;12.17;6.30;;;7.30;50.70;;;;;;4322921;33;20590;-37
2021/03/23 04:51:01;;;;;;;12.87;7.53;;;7.40;50.80;;;;;;4336336;33;20160;-37
2021/03/23 04:53:33;;;;;;;10.80;6.27;;;7.40;50.40;;;;;;4330422;33;20058;-38
2021/03/23 04:56:00;;;;;;;11.50;5.43;;;7.40;50.50;;;;;;4330888;33;20518;-37
2021/03/23 04:58:27;;;;;;;11.67;7.37;;;7.50;50.40;;;;;;4331346;32;20142;-39
2021/03/23 05:00:54;;;;;;;9.63;6.30;;;7.50;50.20;;;;;;4360687;32;20089;-37
2021/03/23 05:03:29;;;;;;;10.57;5.80;;;7.60;50.10;;;;;;4345995;32;20110;-36
2021/03/23 05:05:58;;;;;;;;;;;7.70;50.20;;;;;;4334897;32;20071;-39
2021/03/23 05:08:24;;;;;;;11.90;6.27;;;7.70;50.00;;;;;;4359187;32;20032;-38
2021/03/23 05:10:52;;;;;;;10.20;6.47;;;7.80;49.60;;;;;;4360443;32;20068;-37
2021/03/23 05:13:19;;;;;;;18.67;8.00;;;7.80;49.80;;;;;;4360200;32;20070;-37
2021/03/23 05:15:45;;;;;;;14.53;5.53;;;7.90;49.70;;;;;;4359223;32;20055;-37
2021/03/23 05:18:12;;;;;;;9.20;6.43;;;7.90;49.60;;;;;;4359965;32;20085;-36
2021/03/23 05:20:39;;;;;;;10.43;5.40;;;8.00;49.60;;;;;;4358469;32;20631;-36
2021/03/23 05:23:06;;;;;;;11.80;5.77;;;8.10;49.30;;;;;;4359703;32;20573;-38
2021/03/23 05:25:32;;;;;;;8.43;5.43;;;8.20;49.30;;;;;;4358387;32;20077;-36
2021/03/23 05:27:59;;;;;;;15.23;7.53;;;8.30;49.10;;;;;;4360055;32;20178;-37
2021/03/23 05:30:25;;;;;;;9.40;6.00;;;8.40;49.30;;;;;;4359866;32;20087;-37
2021/03/23 05:32:52;;;;;;;10.27;5.90;;;8.60;48.80;;;;;;4359787;32;20055;-37
2021/03/23 05:35:19;;;;;;;9.37;5.53;;;8.70;48.50;;;;;;4359754;32;20094;-37
2021/03/23 05:37:45;;;;;;;13.17;7.23;;;8.80;48.20;;;;;;4359443;32;20075;-38
2021/03/23 05:40:36;;;;;;;11.40;7.27;;;8.90;47.70;;;;;;4357990;32;20057;-38
2021/03/23 05:43:43;;;;;;;7.53;5.40;;;9.00;47.80;;;;;;4358053;32;20081;-39
2021/03/23 05:46:28;;;;;;;9.60;5.67;;;9.10;47.60;;;;;;4358473;32;20069;-37
2021/03/23 05:49:26;;;;;;;11.77;6.43;;;9.30;46.80;;;;;;4335577;33;20078;-38
2021/03/23 05:52:24;;;;;;;10.45;6.15;;;9.40;47.00;;;;;;4345202;33;20070;-39
2021/03/23 05:54:51;;;;;;;10.07;6.43;;;9.60;46.00;;;;;;4344487;33;20067;-39
2021/03/23 05:57:36;;;;;;;10.43;5.90;;;9.60;45.80;;;;;;4344787;33;20189;-41
2021/03/23 06:00:25;;;;;;;7.75;4.75;;;9.70;45.70;;;;;;4343013;33;20091;-39
2021/03/23 06:03:06;;;;;;;12.37;6.57;;;9.90;45.70;;;;;;4344523;33;20531;-38
2021/03/23 06:05:46;;;;;;;9.65;6.32;;;10.10;45.20;;;;;;4344301;33;20056;-39
2021/03/23 06:08:27;;;;;;;9.13;5.75;;;10.30;44.20;;;;;;4343256;33;20160;-40
2021/03/23 06:11:06;;;;;;;11.52;7.25;;;10.50;43.90;;;;;;4342827;33;20083;-40
2021/03/23 06:14:18;;;;;;;10.70;6.90;;;10.80;44.70;;;;;;4344751;33;20140;-40
2021/03/23 06:17:10;;;;;;;8.93;5.68;;;11.00;42.20;;;;;;4333719;33;20448;-41
2021/03/23 06:20:17;;;;;;;8.93;5.87;;;11.10;42.60;;;;;;4343083;33;20055;-40
2021/03/23 06:23:30;;;;;;;9.27;5.50;;;11.30;41.90;;;;;;4344249;33;20170;-40
2021/03/23 06:26:49;;;;;;;8.23;5.62;;;11.50;41.50;;;;;;4342639;33;20626;-41
2021/03/23 06:29:33;;;;;;;8.95;6.57;;;11.70;41.80;;;;;;4340968;33;20134;-44
2021/03/23 06:32:57;;;;;;;6.95;5.32;;;11.90;40.60;;;;;;4344187;33;20082;-40
2021/03/23 06:35:55;;;;;;;10.35;7.05;;;12.00;40.10;;;;;;4341357;33;20075;-41
2021/03/23 06:38:37;;;;;;;7.55;5.65;;;11.90;39.10;;;;;;4342521;33;20094;-41
2021/03/23 06:41:19;;;;;;;9.90;5.82;;;11.80;39.50;;;;;;4344210;33;20155;-41
2021/03/23 06:43:55;;;;;;;8.23;5.07;;;11.90;39.80;;;;;;4342771;33;20137;-40
2021/03/23 06:46:32;;;;;;;8.80;5.62;;;11.90;39.70;;;;;;4342513;33;20581;-41
2021/03/23 06:49:25;;;;;;;10.68;5.12;;;12.00;39.70;;;;;;4342807;33;20511;-42
2021/03/23 06:51:58;;;;;;;8.73;6.20;;;12.10;39.40;;;;;;4314899;33;20068;-41
2021/03/23 06:54:36;;;;;;;9.90;6.03;;;12.20;39.20;;;;;;4326372;33;20529;-41
2021/03/23 06:57:05;;;;;;;10.43;6.20;;;12.30;39.60;;;;;;4326228;33;20155;-41
2021/03/23 06:59:49;;;;;;;10.55;5.57;;;12.30;38.60;;;;;;4326545;33;20663;-41
2021/03/23 07:02:43;;;;;;;9.20;6.35;;;12.40;38.50;;;;;;4316196;33;20144;-41
2021/03/23 07:05:32;;;;;;;8.27;6.10;;;12.40;38.00;;;;;;4314837;33;20075;-41
2021/03/23 07:08:07;;;;;;;8.93;6.82;;;12.50;37.90;;;;;;4326872;33;20129;-41
2021/03/23 07:10:35;;;;;;;;;;;12.50;37.90;;;;;;4326762;33;20142;-41
2021/03/23 07:13:02;;;;;;;9.25;6.47;;;12.60;37.40;;;;;;4326483;33;19973;-41
2021/03/23 07:15:36;;;;;;;9.68;6.07;;;12.50;37.40;;;;;;4326160;33;20067;-42
2021/03/23 07:18:06;;;;;;;8.63;5.07;;;12.50;37.70;;;;;;4314452;33;20083;-41
2021/03/23 07:20:37;;;;;;;16.75;7.15;;;12.50;38.50;;;;;;4326410;33;20074;-41
2021/03/23 07:23:27;;;;;;;9.80;6.40;;;12.60;38.00;;;;;;4336223;33;20071;-41
2021/03/23 07:25:53;;;;;;;8.75;6.95;;;12.60;37.90;;;;;;4315676;33;20078;-42
2021/03/23 07:28:33;;;;;;;10.55;6.87;;;12.70;37.50;;;;;;4314266;33;20629;-42
2021/03/23 07:31:21;;;;;;;13.02;7.40;;;12.60;37.70;;;;;;4314168;33;20533;-42
2021/03/23 07:34:11;;;;;;;11.43;5.95;;;12.70;38.10;;;;;;4315988;33;20074;-41
2021/03/23 07:36:47;;;;;;;13.52;5.43;;;12.70;37.70;;;;;;4315020;33;20074;-41
2021/03/23 07:39:38;;;;;;;10.13;6.50;;;12.80;37.60;;;;;;4313484;33;20562;-41
2021/03/23 07:42:30;;;;;;;12.13;7.87;;;13.00;37.60;;;;;;4314577;33;20089;-43
2021/03/23 07:45:29;;;;;;;11.98;7.40;;;13.10;36.60;;;;;;4313600;33;20078;-42
2021/03/23 07:48:08;;;;;;;10.82;6.82;;;13.10;36.70;;;;;;4321280;33;20086;-41
2021/03/23 07:50:43;;;;;;;14.40;8.15;;;13.00;36.00;;;;;;4329415;33;20059;-42
2021/03/23 07:53:37;;;;;;;11.13;7.93;;;12.90;36.00;;;;;;4328408;33;20074;-41
2021/03/23 07:56:36;;;;;;;13.27;7.35;;;12.80;36.00;;;;;;4330986;32;20306;-41
2021/03/23 07:59:42;;;;;;;13.10;7.93;;;12.70;36.60;;;;;;4333733;32;20449;-42
2021/03/23 08:02:27;;;;;;;14.87;7.47;;;12.60;36.50;;;;;;4356554;32;20067;-41
2021/03/23 08:05:11;;;;;;;12.25;7.60;;;12.60;37.00;;;;;;4357826;32;20071;-43
2021/03/23 08:07:59;;;;;;;12.63;7.93;;;12.50;37.10;;;;;;4315083;33;20559;-40
2021/03/23 08:11:05;;;;;;;13.60;8.35;;;12.40;36.80;;;;;;4328163;33;20220;-42
2021/03/23 08:13:58;;;;;;;15.65;9.20;;;12.30;37.40;;;;;;4328145;33;20078;-42
2021/03/23 08:16:37;;;;;;;14.18;8.25;;;12.30;37.80;;;;;;4327881;33;20086;-42
2021/03/23 08:19:32;;;;;;;12.57;8.80;;;12.40;37.70;;;;;;4328411;33;20067;-41
2021/03/23 08:22:43;;;;;;;12.15;8.40;;;12.40;37.50;;;;;;4314720;33;20547;-41
2021/03/23 08:25:27;;;;;;;12.48;8.20;;;12.30;37.50;;;;;;4317500;33;20082;-40
2021/03/23 08:28:13;;;;;;;13.23;8.48;;;12.20;37.40;;;;;;4327994;33;20097;-41
2021/03/23 08:31:25;;;;;;;10.95;8.00;;;12.10;37.80;;;;;;4326749;33;20138;-42
2021/03/23 08:34:32;;;;;;;13.75;8.80;;;12.00;37.50;;;;;;4327123;33;20099;-41
2021/03/23 08:37:31;;;;;;;12.30;7.62;;;12.00;37.50;;;;;;4310339;33;20089;-41
2021/03/23 08:40:28;;;;;;;11.55;7.95;;;11.90;37.70;;;;;;4327755;33;20553;-42
2021/03/23 08:42:55;;;;;;;13.32;7.78;;;11.80;38.10;;;;;;4328360;33;20518;-41
2021/03/23 08:45:35;;;;;;;13.57;9.45;;;11.90;39.20;;;;;;4328263;33;20071;-41
2021/03/23 08:48:18;;;;;;;12.48;7.20;;;11.90;38.00;;;;;;4309185;33;20064;-42
2021/03/23 08:50:45;;;;;;;12.37;8.32;;;11.90;38.40;;;;;;4301303;33;20076;-42
2021/03/23 08:53:41;;;;;;;10.48;7.68;;;11.80;38.40;;;;;;4302475;33;20097;-41
2021/03/23 08:56:09;;;;;;;;;;;11.70;38.70;;;;;;4303136;33;20060;-42
2021/03/23 08:58:44;;;;;;;9.82;7.47;;;11.70;38.80;;;;;;4315840;33;19987;-40
2021/03/23 09:01:29;;;;;;;11.07;8.45;;;11.70;39.10;;;;;;4316084;33;20072;-40
2021/03/23 09:04:10;;;;;;;13.52;8.70;;;11.60;38.90;;;;;;4316299;33;20055;-42
2021/03/23 09:07:00;;;;;;;13.32;9.30;;;11.60;38.90;;;;;;4333195;33;20518;-40
2021/03/23 09:09:27;;;;;;;12.73;8.40;;;11.60;39.00;;;;;;4333170;33;20051;-41
2021/03/23 09:12:04;;;;;;;17.62;8.55;;;11.60;38.70;;;;;;4343939;33;20076;-41
2021/03/23 09:14:32;;;;;;;12.80;6.55;;;11.70;38.90;;;;;;4343898;33;20075;-41
2021/03/23 09:16:59;;;;;;;10.77;7.97;;;11.70;39.00;;;;;;4343563;33;20158;-41
2021/03/23 09:19:49;;;;;;;15.00;8.48;;;11.80;38.80;;;;;;4345244;33;20118;-42
2021/03/23 09:22:29;;;;;;;17.25;7.62;;;11.90;38.90;;;;;;4344889;33;20097;-39
2021/03/23 09:25:58;;;;;;;10.60;7.72;;;11.90;38.70;;;;;;4343544;33;20082;-41
2021/03/23 09:28:37;;;;;;;13.40;8.77;;;11.90;38.70;;;;;;4334355;33;20081;-40
2021/03/23 09:31:05;;;;;;;11.32;8.63;;;12.00;39.00;;;;;;4344732;33;20480;-41
2021/03/23 09:33:51;;;;;;;13.48;9.05;;;12.00;39.10;;;;;;4331416;33;20062;-41
2021/03/23 09:36:33;;;;;;;11.80;8.60;;;12.00;38.80;;;;;;4345056;33;20059;-40
2021/03/23 09:39:15;;;;;;;12.07;7.95;;;12.10;38.80;;;;;;4344995;33;20525;-43
2021/03/23 09:41:51;;;;;;;12.85;8.00;;;12.00;39.10;;;;;;4345308;33;20071;-42
2021/03/23 09:44:18;;;;;;;10.13;7.97;;;12.10;39.30;;;;;;4343304;33;20101;-41
2021/03/23 09:46:53;;;;;;;16.98;9.77;;;12.10;39.10;;;;;;4344934;33;20071;-40
2021/03/23 09:49:49;;;;;;;11.25;7.78;;;12.10;39.10;;;;;;4359079;32;20112;-41
2021/03/23 09:52:23;;;;;;;12.23;6.85;;;12.10;39.30;;;;;;4283401;33;20092;-41
2021/03/23 09:54:58;;;;;;;10.95;8.68;;;12.20;39.40;;;;;;4260164;33;20535;-40
2021/03/23 09:57:32;;;;;;;11.52;7.82;;;12.20;40.00;;;;;;4271970;33;20068;-41
2021/03/23 10:00:12;;;;;;;17.00;9.18;;;12.20;39.50;;;;;;4284100;33;20083;-41
2021/03/23 10:02:39;;;;;;;12.68;8.15;;;12.20;39.50;;;;;;4272137;33;20099;-41
2021/03/23 10:05:32;;;;;;;18.55;9.05;;;12.10;39.90;;;;;;4283567;33;20620;-40
2021/03/23 10:08:18;;;;;;;12.63;9.18;;;12.10;39.70;;;;;;4283302;33;20167;-41
2021/03/23 10:10:44;;;;;;;12.63;9.27;;;12.00;39.60;;;;;;4283738;33;20465;-41
2021/03/23 10:13:30;;;;;;;15.90;8.65;;;11.90;39.90;;;;;;4271677;33;20611;-40
2021/03/23 10:15:59;;;;;;;16.12;8.60;;;11.90;40.40;;;;;;4268589;33;20076;-40
2021/03/23 10:18:39;;;;;;;14.60;8.45;;;12.10;40.50;;;;;;4268809;33;20193;-41
2021/03/23 10:21:11;;;;;;;10.00;6.37;;;12.20;40.20;;;;;;4269079;33;20116;-41
2021/03/23 10:23:59;;;;;;;13.52;8.80;;;12.20;40.00;;;;;;4278296;33;20510;-40
2021/03/23 10:26:44;;;;;;;15.85;8.85;;;12.20;40.00;;;;;;4283319;33;20174;-42
2021/03/23 10:29:32;;;;;;;13.02;9.60;;;12.20;39.90;;;;;;4318933;33;20082;-41
2021/03/23 10:32:00;;;;;;;9.60;6.85;;;12.10;40.20;;;;;;4311727;33;20132;-40
2021/03/23 10:34:29;;;;;;;18.00;10.15;;;12.10;40.30;;;;;;4300083;33;20087;-41
2021/03/23 10:37:07;;;;;;;15.40;10.05;;;12.10;40.10;;;;;;4312249;33;20580;-41
2021/03/23 10:39:49;;;;;;;10.43;8.05;;;12.00;40.20;;;;;;4312458;33;20074;-41
2021/03/23 10:42:33;;;;;;;13.25;9.50;;;12.00;40.90;;;;;;4312815;33;20089;-41
2021/03/23 10:45:33;;;;;;;13.52;9.20;;;11.90;40.20;;;;;;4300358;33;20070;-41
2021/03/23 10:48:25;;;;;;;19.42;9.88;;;11.90;40.30;;;;;;4333303;33;20086;-41
2021/03/23 10:51:21;;;;;;;14.13;8.82;;;11.90;40.40;;;;;;4326793;33;20505;-40
2021/03/23 10:54:07;;;;;;;18.20;9.52;;;11.90;40.40;;;;;;4326728;33;20097;-41
2021/03/23 10:56:37;;;;;;;9.20;5.90;;;11.90;40.50;;;;;;4326466;33;20542;-41
2021/03/23 10:59:21;;;;;;;15.40;9.20;;;12.00;40.50;;;;;;4326520;33;20546;-41
2021/03/23 11:02:11;;;;;;;15.48;9.13;;;11.90;40.60;;;;;;4315025;33;20090;-39
2021/03/23 11:04:38;;;;;;;14.45;10.30;;;12.00;40.80;;;;;;4343754;32;20086;-41
2021/03/23 11:07:23;;;;;;;14.60;10.35;;;12.00;40.60;;;;;;4317983;33;20513;-40
2021/03/23 11:09:56;;;;;;;11.93;9.45;;;12.00;40.80;;;;;;4343251;32;20156;-41
2021/03/23 11:12:22;;;;;;;15.55;11.10;;;11.90;40.60;;;;;;4343678;33;20134;-40
2021/03/23 11:14:49;;;;;;;14.38;11.23;;;11.70;40.80;;;;;;4343010;32;20070;-41
2021/03/23 11:17:19;;;;;;;12.37;8.25;;;11.50;41.20;;;;;;4342215;33;20070;-41
2021/03/23 11:19:50;;;;;;;9.85;7.20;;;11.40;41.60;;;;;;4330065;33;20490;-41
2021/03/23 11:22:21;;;;;;;14.93;10.77;;;11.20;42.00;;;;;;4343625;33;20175;-42
2021/03/23 11:24:47;;;;;;;16.92;10.57;;;11.10;42.60;;;;;;4342342;33;20079;-41
2021/03/23 11:27:14;;;;;;;17.12;9.98;;;11.00;43.00;;;;;;4343521;32;20519;-42
2021/03/23 11:29:40;;;;;;;16.10;10.65;;;10.90;43.40;;;;;;4343476;33;20079;-41
2021/03/23 11:32:08;;;;;;;16.92;12.13;;;10.80;43.80;;;;;;4343354;32;20506;-41
2021/03/23 11:34:34;;;;;;;16.12;11.70;;;10.80;44.20;;;;;;4343326;32;20523;-40
2021/03/23 11:37:00;;;;;;;19.17;10.38;;;10.80;44.40;;;;;;4343281;32;20146;-40
2021/03/23 11:39:27;;;;;;;18.65;11.85;;;10.70;44.70;;;;;;4343148;32;20059;-41
2021/03/23 11:42:18;;;;;;;20.70;12.32;;;10.60;44.80;;;;;;4342900;32;20062;-40
2021/03/23 11:44:47;;;;;;;18.67;11.73;;;10.50;45.40;;;;;;4342031;33;20525;-41
2021/03/23 11:47:28;;;;;;;17.45;11.15;;;10.40;45.60;;;;;;4344369;32;20109;-40
2021/03/23 11:50:08;;;;;;;19.57;12.30;;;10.30;45.90;;;;;;4345824;32;20067;-40
2021/03/23 11:52:36;;;;;;;20.37;12.20;;;10.30;46.20;;;;;;4356679;32;20073;-41
2021/03/23 11:55:06;;;;;;;17.73;13.15;;;10.30;46.30;;;;;;4357976;32;20154;-41
2021/03/23 11:57:32;;;;;;;18.45;11.80;;;10.30;46.30;;;;;;4357613;32;20499;-41
2021/03/23 12:00:00;;;;;;;20.37;10.27;;;10.30;46.30;;;;;;4357586;32;20182;-40
2021/03/23 12:02:30;;;;;;;17.92;10.35;;;10.40;46.40;;;;;;4358139;32;20510;-41
2021/03/23 12:04:57;;;;;;;15.60;10.75;;;10.50;46.40;;;;;;4356399;32;20144;-41
2021/03/23 12:08:08;;;;;;;16.50;10.25;;;10.60;46.00;;;;;;4357665;32;20079;-40
2021/03/23 12:10:54;;;;;;;19.50;11.33;;;10.60;45.80;;;;;;4356946;32;20069;-41
2021/03/23 12:13:54;;;;;;;18.20;11.05;;;10.60;45.80;;;;;;4340399;33;20131;-40
2021/03/23 12:16:40;;;;;;;19.85;12.07;;;10.60;45.80;;;;;;4340668;33;20134;-40
2021/03/23 12:19:11;;;;;;;13.50;11.07;;;10.70;45.80;;;;;;4340540;33;20124;-41
2021/03/23 12:21:38;;;;;;;16.37;10.67;;;10.70;45.70;;;;;;4328335;33;20117;-41
2021/03/23 12:24:05;;;;;;;17.73;12.63;;;10.70;45.70;;;;;;4328310;33;20070;-40
2021/03/23 12:26:36;;;;;;;17.98;11.05;;;10.60;45.70;;;;;;4341716;32;20525;-40
2021/03/23 12:29:02;;;;;;;22.25;10.57;;;10.60;45.70;;;;;;4318872;33;20155;-41
2021/03/23 12:31:29;;;;;;;20.02;11.60;;;10.50;45.80;;;;;;4343008;33;20066;-40
2021/03/23 12:33:55;;;;;;;16.53;11.33;;;10.50;45.90;;;;;;4343393;33;20085;-40
2021/03/23 12:36:22;;;;;;;15.82;9.98;;;10.50;46.00;;;;;;4331168;33;20067;-41
2021/03/23 12:38:50;;;;;;;15.40;10.10;;;10.50;46.30;;;;;;4330789;33;20059;-40
2021/03/23 12:41:43;;;;;;;19.77;11.73;;;10.40;46.40;;;;;;4331151;33;20091;-41
2021/03/23 12:44:10;;;;;;;15.88;10.00;;;10.40;46.70;;;;;;4328608;33;20623;-40
2021/03/23 12:46:36;;;;;;;14.95;8.88;;;10.40;46.70;;;;;;4331228;33;20075;-40
2021/03/23 12:49:05;;;;;;;17.33;10.20;;;10.40;46.60;;;;;;4330703;33;20091;-40
2021/03/23 12:51:44;;;;;;;17.00;11.52;;;10.40;46.60;;;;;;4337779;33;20109;-40
2021/03/23 12:54:19;;;;;;;22.62;11.05;;;10.40;46.70;;;;;;4331914;33;20573;-41
2021/03/23 12:56:45;;;;;;;20.02;11.00;;;10.30;46.70;;;;;;4327962;33;20066;-42
2021/03/23 12:59:28;;;;;;;14.02;8.05;;;10.30;46.80;;;;;;4272205;33;20068;-41
2021/03/23 13:01:56;;;;;;;17.55;9.48;;;10.40;47.10;;;;;;4260303;33;20520;-41
2021/03/23 13:04:26;;;;;;;16.45;7.62;;;10.60;46.90;;;;;;4272763;33;20104;-40
2021/03/23 13:06:56;;;;;;;16.80;9.50;;;10.60;46.60;;;;;;4273003;33;20087;-40
2021/03/23 13:09:24;;;;;;;14.80;10.25;;;10.70;46.40;;;;;;4273275;33;20160;-39
2021/03/23 13:11:51;;;;;;;13.57;8.60;;;10.70;46.20;;;;;;4272419;33;20086;-40
2021/03/23 13:14:23;;;;;;;16.10;9.25;;;10.70;46.30;;;;;;4257903;33;20518;-40
2021/03/23 13:16:50;;;;;;;16.10;9.85;;;10.80;46.20;;;;;;4270317;33;20195;-40
2021/03/23 13:19:17;;;;;;;14.43;9.50;;;10.80;46.00;;;;;;4269741;33;20159;-39
2021/03/23 13:21:49;;;;;;;18.52;10.02;;;10.80;46.10;;;;;;4269269;33;20108;-39